createdAt,value
2019-01-09T00:00:47.920Z,1.63
2019-01-09T00:03:16.733Z,1.47
2019-01-09T00:05:45.081Z,2.03
2019-01-09T00:08:13.409Z,1.50
2019-01-09T00:10:41.748Z,1.40
2019-01-09T00:13:10.083Z,1.37
2019-01-09T00:15:38.500Z,1.50
2019-01-09T00:18:07.119Z,1.30
2019-01-09T00:20:35.529Z,1.40
2019-01-09T00:23:03.851Z,1.55
2019-01-09T00:25:32.191Z,1.30
2019-01-09T00:28:00.533Z,1.57
2019-01-09T00:30:28.988Z,1.30
2019-01-09T00:32:57.432Z,1.30
2019-01-09T00:35:25.784Z,1.20
2019-01-09T00:37:54.199Z,1.23
2019-01-09T00:40:22.618Z,1.42
2019-01-09T00:42:51.521Z,1.30
2019-01-09T00:45:19.932Z,1.40
2019-01-09T00:47:48.330Z,1.30
2019-01-09T00:50:16.666Z,1.60
2019-01-09T00:52:45.013Z,1.62
2019-01-09T00:55:13.534Z,1.53
2019-01-09T00:57:41.879Z,1.20
2019-01-09T01:00:13.414Z,1.60
2019-01-09T01:03:02.684Z,1.60
2019-01-09T01:06:06.892Z,1.60
2019-01-09T01:08:56.230Z,1.73
2019-01-09T01:11:51.812Z,1.75
2019-01-09T01:14:38.265Z,1.77
2019-01-09T01:17:33.867Z,1.60
2019-01-09T01:20:30.661Z,1.70
2019-01-09T01:23:10.527Z,1.50
2019-01-09T01:25:47.720Z,1.77
2019-01-09T01:28:30.361Z,1.80
2019-01-09T01:31:22.499Z,1.97
2019-01-09T01:34:17.996Z,1.97
2019-01-09T01:37:05.736Z,1.87
2019-01-09T01:40:02.655Z,2.08
2019-01-09T01:42:45.832Z,2.43
2019-01-09T01:45:36.583Z,1.80
2019-01-09T01:48:22.923Z,2.12
2019-01-09T01:51:12.328Z,2.03
2019-01-09T01:53:49.395Z,2.37
2019-01-09T01:56:32.834Z,2.33
2019-01-09T01:59:04.335Z,1.73
2019-01-09T02:02:02.708Z,1.67
2019-01-09T02:04:55.239Z,1.60
2019-01-09T02:07:41.587Z,1.70
2019-01-09T02:10:38.683Z,2.00
2019-01-09T02:13:13.775Z,1.60
2019-01-09T02:16:07.841Z,1.90
2019-01-09T02:18:39.340Z,1.63
2019-01-09T02:21:21.937Z,1.55
2019-01-09T02:24:08.549Z,1.37
2019-01-09T02:26:45.728Z,1.50
2019-01-09T02:29:38.272Z,1.70
2019-01-09T02:32:30.688Z,1.50
2019-01-09T02:34:59.099Z,1.90
2019-01-09T02:37:28.107Z,1.60
2019-01-09T02:39:56.440Z,1.65
2019-01-09T02:42:24.855Z,1.67
2019-01-09T02:44:53.187Z,2.00
2019-01-09T02:47:21.536Z,1.90
2019-01-09T02:49:49.876Z,1.80
2019-01-09T02:52:18.282Z,1.80
2019-01-09T02:54:46.611Z,1.93
2019-01-09T02:57:15.034Z,1.83
2019-01-09T02:59:43.397Z,1.60
2019-01-09T03:02:11.816Z,1.95
2019-01-09T03:04:40.214Z,1.70
2019-01-09T03:07:08.620Z,1.90
2019-01-09T03:09:36.959Z,1.50
2019-01-09T03:12:05.300Z,1.70
2019-01-09T03:14:33.636Z,1.67
2019-01-09T03:17:01.988Z,2.10
2019-01-09T03:19:30.334Z,2.47
2019-01-09T03:21:58.687Z,1.90
2019-01-09T03:24:27.009Z,1.77
2019-01-09T03:26:55.363Z,2.47
2019-01-09T03:29:23.696Z,2.25
2019-01-09T03:31:52.082Z,2.20
2019-01-09T03:34:20.491Z,2.20
2019-01-09T03:36:48.846Z,1.90
2019-01-09T03:39:17.175Z,2.47
2019-01-09T03:41:45.588Z,2.20
2019-01-09T03:44:13.950Z,2.35
2019-01-09T03:46:42.408Z,1.87
2019-01-09T03:49:10.763Z,2.10
2019-01-09T03:51:39.107Z,1.90
2019-01-09T03:54:07.457Z,2.00
2019-01-09T03:56:35.807Z,2.43
2019-01-09T03:59:04.149Z,2.43
2019-01-09T04:01:32.492Z,2.80
2019-01-09T04:04:00.887Z,1.90
2019-01-09T04:06:29.245Z,2.20
2019-01-09T04:08:57.573Z,1.90
2019-01-09T04:11:25.933Z,2.20
2019-01-09T04:13:54.263Z,2.20
2019-01-09T04:16:22.632Z,2.10
2019-01-09T04:18:50.956Z,1.80
2019-01-09T04:21:19.307Z,1.80
2019-01-09T04:23:47.638Z,1.82
2019-01-09T04:26:15.991Z,1.73
2019-01-09T04:28:44.351Z,1.83
2019-01-09T04:31:12.703Z,1.60
2019-01-09T04:33:41.025Z,1.30
2019-01-09T04:36:09.363Z,1.82
2019-01-09T04:38:37.712Z,1.40
2019-01-09T04:41:06.055Z,1.53
2019-01-09T04:43:34.402Z,1.87
2019-01-09T04:46:02.755Z,1.40
2019-01-09T04:48:31.075Z,1.40
2019-01-09T04:50:59.440Z,1.93
2019-01-09T04:53:27.791Z,1.60
2019-01-09T04:55:56.107Z,1.40
2019-01-09T04:58:24.483Z,1.83
2019-01-09T05:00:52.928Z,2.40
2019-01-09T05:03:21.302Z,1.77
2019-01-09T05:05:49.658Z,1.73
2019-01-09T05:08:17.986Z,1.50
2019-01-09T05:10:46.304Z,1.40
2019-01-09T05:13:14.657Z,1.27
2019-01-09T05:15:42.984Z,1.30
2019-01-09T05:18:11.337Z,1.20
2019-01-09T05:20:40.587Z,1.20
2019-01-09T05:23:08.923Z,1.37
2019-01-09T05:25:37.253Z,1.53
2019-01-09T05:28:24.940Z,1.30
2019-01-09T05:31:12.622Z,1.37
2019-01-09T05:33:54.325Z,1.20
2019-01-09T05:36:22.742Z,1.37
2019-01-09T05:38:51.096Z,1.70
2019-01-09T05:41:19.430Z,1.92
2019-01-09T05:44:07.115Z,1.70
2019-01-09T05:46:48.357Z,1.50
2019-01-09T05:49:16.704Z,1.50
2019-01-09T05:51:45.083Z,1.83
2019-01-09T05:54:13.444Z,1.60
2019-01-09T05:56:41.779Z,1.70
2019-01-09T05:59:10.126Z,1.70
2019-01-09T06:01:38.483Z,1.60
2019-01-09T06:04:06.804Z,1.50
2019-01-09T06:06:35.224Z,1.30
2019-01-09T06:09:04.512Z,1.77
2019-01-09T06:11:32.875Z,1.80
2019-01-09T06:14:01.224Z,1.52
2019-01-09T06:16:29.561Z,1.40
2019-01-09T06:18:57.908Z,1.27
2019-01-09T06:21:26.252Z,1.40
2019-01-09T06:23:54.594Z,1.40
2019-01-09T06:26:22.920Z,0.90
2019-01-09T06:28:51.293Z,0.93
2019-01-09T06:31:19.619Z,0.93
2019-01-09T06:33:48.028Z,0.77
2019-01-09T06:36:16.359Z,0.90
2019-01-09T06:38:44.774Z,0.70
2019-01-09T06:41:13.108Z,0.80
2019-01-09T06:43:41.464Z,0.80
2019-01-09T06:46:09.788Z,0.80
2019-01-09T06:48:38.346Z,0.70
2019-01-09T06:51:06.675Z,1.07
2019-01-09T06:53:35.076Z,1.00
2019-01-09T06:56:03.459Z,1.10
2019-01-09T06:58:31.815Z,0.80
2019-01-09T07:01:19.504Z,0.77
2019-01-09T07:04:00.704Z,0.60
2019-01-09T07:06:29.033Z,0.62
2019-01-09T07:08:57.462Z,0.80
2019-01-09T07:11:25.852Z,0.40
2019-01-09T07:13:54.191Z,0.50
2019-01-09T07:16:22.568Z,0.50
2019-01-09T07:18:50.911Z,0.40
2019-01-09T07:21:19.254Z,0.68
2019-01-09T07:23:47.607Z,1.10
2019-01-09T07:26:15.941Z,1.20
2019-01-09T07:28:44.315Z,0.90
2019-01-09T07:31:12.721Z,0.75
2019-01-09T07:33:41.106Z,0.90
2019-01-09T07:36:09.438Z,1.33
2019-01-09T07:38:37.788Z,1.30
2019-01-09T07:41:06.168Z,1.50
2019-01-09T07:43:34.525Z,1.90
2019-01-09T07:46:02.860Z,1.80
2019-01-09T07:48:31.203Z,1.90
2019-01-09T07:50:59.540Z,1.47
2019-01-09T07:53:27.917Z,1.30
2019-01-09T07:55:56.257Z,1.20
2019-01-09T07:58:24.607Z,1.62
2019-01-09T08:00:53.007Z,1.25
2019-01-09T08:03:21.335Z,1.70
2019-01-09T08:05:49.683Z,0.93
2019-01-09T08:08:18.014Z,1.50
2019-01-09T08:11:05.710Z,1.20
2019-01-09T08:13:34.068Z,1.10
2019-01-09T08:16:02.412Z,1.30
2019-01-09T08:18:30.738Z,1.02
2019-01-09T08:21:05.259Z,1.10
2019-01-09T08:23:29.139Z,1.40
2019-01-09T08:25:57.557Z,1.07
2019-01-09T08:28:25.888Z,1.40
2019-01-09T08:30:54.241Z,1.30
2019-01-09T08:33:22.571Z,1.07
2019-01-09T08:35:50.915Z,1.23
2019-01-09T08:38:19.247Z,1.20
2019-01-09T08:40:47.796Z,1.30
2019-01-09T08:43:16.191Z,1.30
2019-01-09T08:45:44.548Z,1.20
2019-01-09T08:48:12.876Z,1.80
2019-01-09T08:50:41.383Z,1.20
2019-01-09T08:53:09.709Z,1.50
2019-01-09T08:55:38.067Z,1.40
2019-01-09T08:58:06.396Z,1.20
2019-01-09T09:00:34.743Z,1.70
2019-01-09T09:03:03.064Z,1.50
2019-01-09T09:05:31.408Z,1.20
2019-01-09T09:08:00.770Z,1.30
2019-01-09T09:10:29.121Z,1.10
2019-01-09T09:12:57.531Z,1.30
2019-01-09T09:15:25.896Z,1.35
2019-01-09T09:17:54.223Z,1.50
2019-01-09T09:20:22.567Z,1.50
2019-01-09T09:22:50.891Z,1.30
2019-01-09T09:25:19.244Z,1.70
2019-01-09T09:27:47.563Z,1.47
2019-01-09T09:30:17.731Z,1.13
2019-01-09T09:32:46.054Z,1.50
2019-01-09T09:35:14.400Z,1.37
2019-01-09T09:37:42.757Z,1.40
2019-01-09T09:40:17.091Z,1.35
2019-01-09T09:42:45.427Z,1.55
2019-01-09T09:45:14.222Z,1.50
2019-01-09T09:47:42.629Z,1.67
2019-01-09T09:50:14.019Z,1.20
2019-01-09T09:52:42.413Z,1.53
2019-01-09T09:55:13.015Z,1.50
2019-01-09T09:57:40.947Z,1.80
2019-01-09T10:00:12.471Z,1.70
2019-01-09T10:02:40.827Z,1.90
2019-01-09T10:05:09.296Z,1.77
2019-01-09T10:07:37.644Z,1.60
2019-01-09T10:10:09.163Z,1.73
2019-01-09T10:12:37.516Z,1.60
2019-01-09T10:15:09.280Z,1.50
2019-01-09T10:17:37.608Z,1.70
2019-01-09T10:20:11.670Z,1.60
2019-01-09T10:22:40.079Z,1.50
2019-01-09T10:25:08.538Z,1.77
2019-01-09T10:27:36.868Z,1.60
2019-01-09T10:30:16.648Z,1.50
2019-01-09T10:32:45.084Z,2.00
2019-01-09T10:35:13.600Z,2.30
2019-01-09T10:37:43.721Z,2.00
2019-01-09T10:40:17.881Z,1.57
2019-01-09T10:42:46.397Z,2.03
2019-01-09T10:45:17.147Z,1.50
2019-01-09T10:47:45.583Z,1.83
2019-01-09T10:50:15.992Z,2.00
2019-01-09T10:52:44.390Z,1.40
2019-01-09T10:55:14.971Z,2.07
2019-01-09T10:57:43.299Z,2.02
2019-01-09T11:00:14.854Z,2.13
2019-01-09T11:02:43.188Z,1.90
2019-01-09T11:05:12.601Z,2.57
2019-01-09T11:07:40.999Z,2.50
2019-01-09T11:10:11.970Z,2.27
2019-01-09T11:12:40.307Z,2.03
2019-01-09T11:15:10.183Z,1.80
2019-01-09T11:17:38.527Z,1.67
2019-01-09T11:20:12.581Z,1.53
2019-01-09T11:22:40.944Z,1.43
2019-01-09T11:25:12.684Z,1.40
2019-01-09T11:27:41.040Z,1.47
2019-01-09T11:30:14.901Z,1.80
2019-01-09T11:32:43.311Z,1.47
2019-01-09T11:35:13.803Z,1.50
2019-01-09T11:37:42.147Z,1.50
2019-01-09T11:40:13.435Z,1.40
2019-01-09T11:42:41.759Z,1.50
2019-01-09T11:45:15.644Z,1.60
2019-01-09T11:47:44.064Z,1.60
2019-01-09T11:50:14.210Z,1.70
2019-01-09T11:52:42.620Z,2.00
2019-01-09T11:55:12.388Z,2.10
2019-01-09T11:57:40.747Z,1.40
2019-01-09T12:00:12.276Z,1.87
2019-01-09T12:02:40.605Z,2.57
2019-01-09T12:05:09.227Z,1.80
2019-01-09T12:07:37.579Z,1.80
2019-01-09T12:10:11.517Z,1.70
2019-01-09T12:12:39.948Z,2.50
2019-01-09T12:15:10.683Z,2.63
2019-01-09T12:17:39.172Z,3.20
2019-01-09T12:20:10.490Z,2.17
2019-01-09T12:22:38.892Z,1.82
2019-01-09T12:25:08.776Z,3.55
2019-01-09T12:27:37.123Z,1.87
2019-01-09T12:30:11.400Z,2.00
2019-01-09T12:32:39.752Z,2.00
2019-01-09T12:35:08.182Z,1.93
2019-01-09T12:37:36.591Z,2.33
2019-01-09T12:40:07.063Z,2.00
2019-01-09T12:42:35.492Z,2.30
2019-01-09T12:45:07.030Z,1.50
2019-01-09T12:47:35.372Z,1.70
2019-01-09T12:50:06.829Z,1.80
2019-01-09T12:52:35.197Z,1.73
2019-01-09T12:55:05.621Z,1.80
2019-01-09T12:57:34.285Z,1.72
2019-01-09T13:00:03.484Z,1.60
2019-01-09T13:02:31.836Z,1.50
2019-01-09T13:05:00.289Z,1.43
2019-01-09T13:07:28.579Z,1.80
2019-01-09T13:09:56.943Z,1.30
2019-01-09T13:12:25.303Z,1.40
2019-01-09T13:14:53.642Z,1.82
2019-01-09T13:17:22.235Z,1.53
2019-01-09T13:19:50.566Z,1.50
2019-01-09T13:22:18.904Z,2.03
2019-01-09T13:24:47.241Z,2.20
2019-01-09T13:27:15.596Z,2.67
2019-01-09T13:29:43.931Z,2.57
2019-01-09T13:32:12.355Z,2.42
2019-01-09T13:34:40.702Z,2.40
2019-01-09T13:37:09.129Z,2.60
2019-01-09T13:39:37.534Z,3.02
2019-01-09T13:42:05.976Z,2.50
2019-01-09T13:44:34.336Z,3.03
2019-01-09T13:47:02.695Z,2.20
2019-01-09T13:49:31.052Z,2.20
2019-01-09T13:51:59.467Z,2.80
2019-01-09T13:54:27.799Z,2.30
2019-01-09T13:56:57.091Z,2.37
2019-01-09T13:59:25.460Z,2.63
2019-01-09T14:01:53.811Z,2.20
2019-01-09T14:04:22.152Z,2.67
2019-01-09T14:06:50.528Z,2.45
2019-01-09T14:09:18.883Z,2.23
2019-01-09T14:11:47.299Z,2.10
2019-01-09T14:14:15.667Z,2.53
2019-01-09T14:16:45.381Z,2.17
2019-01-09T14:19:13.806Z,2.60
2019-01-09T14:21:42.167Z,2.13
2019-01-09T14:24:10.555Z,1.70
2019-01-09T14:26:38.898Z,1.60
2019-01-09T14:29:07.275Z,2.05
2019-01-09T14:31:35.604Z,2.35
2019-01-09T14:34:03.960Z,1.97
2019-01-09T14:36:32.308Z,2.30
2019-01-09T14:39:00.693Z,2.70
2019-01-09T14:41:29.011Z,2.40
2019-01-09T14:43:57.440Z,2.60
2019-01-09T14:46:25.807Z,2.30
2019-01-09T14:48:54.208Z,2.50
2019-01-09T14:51:22.611Z,2.40
2019-01-09T14:53:51.089Z,2.20
2019-01-09T14:56:20.182Z,2.02
2019-01-09T14:58:49.421Z,2.33
2019-01-09T15:01:18.038Z,3.37
2019-01-09T15:03:47.372Z,4.40
2019-01-09T15:06:15.803Z,3.63
2019-01-09T15:08:44.184Z,5.40
2019-01-09T15:11:12.588Z,2.85
2019-01-09T15:13:40.937Z,2.60
2019-01-09T15:16:09.315Z,3.10
2019-01-09T15:18:37.651Z,2.52
2019-01-09T15:21:06.058Z,2.87
2019-01-09T15:23:34.426Z,2.42
2019-01-09T15:26:02.834Z,2.30
2019-01-09T15:28:31.201Z,2.13
2019-01-09T15:30:59.536Z,2.47
2019-01-09T15:33:27.986Z,2.57
2019-01-09T15:35:56.332Z,3.07
2019-01-09T15:38:24.712Z,3.73
2019-01-09T15:40:53.031Z,3.52
2019-01-09T15:43:22.322Z,3.10
2019-01-09T15:45:50.696Z,4.07
2019-01-09T15:48:19.071Z,3.33
2019-01-09T15:50:47.522Z,2.70
2019-01-09T15:53:35.233Z,3.15
2019-01-09T15:56:03.700Z,3.17
2019-01-09T15:58:32.138Z,2.87
2019-01-09T16:01:00.583Z,3.15
2019-01-09T16:03:48.263Z,2.67
2019-01-09T16:06:16.647Z,2.85
2019-01-09T16:08:45.026Z,2.92
2019-01-09T16:11:13.364Z,2.90
2019-01-09T16:13:41.741Z,3.27
2019-01-09T16:16:10.087Z,3.50
2019-01-09T16:18:38.459Z,4.80
2019-01-09T16:21:06.908Z,3.23
2019-01-09T16:23:35.289Z,6.17
2019-01-09T16:26:04.161Z,3.97
2019-01-09T16:28:32.614Z,7.33
2019-01-09T16:31:09.675Z,7.37
2019-01-09T16:33:38.048Z,6.30
2019-01-09T16:36:06.558Z,8.13
2019-01-09T16:38:35.016Z,27.22
2019-01-09T16:41:03.468Z,13.07
2019-01-09T16:43:31.812Z,5.93
2019-01-09T16:46:00.178Z,4.10
2019-01-09T16:48:28.548Z,6.00
2019-01-09T16:50:56.907Z,4.70
2019-01-09T16:53:25.238Z,10.25
2019-01-09T16:55:53.892Z,4.57
2019-01-09T16:58:22.367Z,6.17
2019-01-09T17:00:50.695Z,8.30
2019-01-09T17:03:19.368Z,7.05
2019-01-09T17:05:47.798Z,3.73
2019-01-09T17:08:16.140Z,5.10
2019-01-09T17:10:44.516Z,3.93
2019-01-09T17:13:12.932Z,5.80
2019-01-09T17:15:41.308Z,6.67
2019-01-09T17:18:28.977Z,4.80
2019-01-09T17:20:57.407Z,4.20
2019-01-09T17:23:25.754Z,4.20
2019-01-09T17:25:54.307Z,3.63
2019-01-09T17:28:22.854Z,4.28
2019-01-09T17:30:51.367Z,4.07
2019-01-09T17:33:19.781Z,4.80
2019-01-09T17:35:48.232Z,4.40
2019-01-09T17:38:16.559Z,5.05
2019-01-09T17:40:44.898Z,4.53
2019-01-09T17:43:13.268Z,5.07
2019-01-09T17:45:42.520Z,4.47
2019-01-09T17:48:10.899Z,5.77
2019-01-09T17:50:39.603Z,4.63
2019-01-09T17:53:08.023Z,4.70
2019-01-09T17:55:36.558Z,6.37
2019-01-09T17:58:05.084Z,6.33
2019-01-09T18:00:35.907Z,8.03
2019-01-09T18:03:04.343Z,8.50
2019-01-09T18:05:32.800Z,11.80
2019-01-09T18:08:09.988Z,14.90
2019-01-09T18:10:31.246Z,10.97
2019-01-09T18:12:59.596Z,12.30
2019-01-09T18:15:28.072Z,7.73
2019-01-09T18:17:56.413Z,15.70
2019-01-09T18:20:24.864Z,6.47
2019-01-09T18:22:53.266Z,5.90
2019-01-09T18:25:26.810Z,5.17
2019-01-09T18:27:55.134Z,5.90
2019-01-09T18:30:29.408Z,4.60
2019-01-09T18:33:00.923Z,4.97
2019-01-09T18:35:32.484Z,5.70
2019-01-09T18:38:16.243Z,4.43
2019-01-09T18:41:06.995Z,5.37
2019-01-09T18:43:38.503Z,5.03
2019-01-09T18:46:10.055Z,5.47
2019-01-09T18:48:53.433Z,6.03
2019-01-09T18:51:45.973Z,6.33
2019-01-09T18:54:14.305Z,6.65
2019-01-09T18:56:42.688Z,5.17
2019-01-09T18:59:11.411Z,6.80
2019-01-09T19:01:39.795Z,6.30
2019-01-09T19:04:08.139Z,6.93
2019-01-09T19:06:36.475Z,5.33
2019-01-09T19:09:08.071Z,8.10
2019-01-09T19:11:37.538Z,7.67
2019-01-09T19:14:06.079Z,7.20
2019-01-09T19:16:34.546Z,5.80
2019-01-09T19:19:02.996Z,6.83
2019-01-09T19:21:31.391Z,8.73
2019-01-09T19:24:00.047Z,11.22
2019-01-09T19:26:28.439Z,8.20
2019-01-09T19:28:56.752Z,8.97
2019-01-09T19:31:25.596Z,10.70
2019-01-09T19:33:53.924Z,7.47
2019-01-09T19:36:22.779Z,7.55
2019-01-09T19:38:51.205Z,8.60
2019-01-09T19:41:19.889Z,8.00
2019-01-09T19:43:48.302Z,8.67
2019-01-09T19:46:16.682Z,8.30
2019-01-09T19:48:45.017Z,6.40
2019-01-09T19:51:17.731Z,9.23
2019-01-09T19:53:43.597Z,7.13
2019-01-09T19:56:11.965Z,9.23
2019-01-09T19:58:40.289Z,9.90
2019-01-09T20:01:08.699Z,11.15
2019-01-09T20:03:37.089Z,10.80
2019-01-09T20:06:05.779Z,7.80
2019-01-09T20:08:34.116Z,10.43
2019-01-09T20:11:02.755Z,22.90
2019-01-09T20:13:31.123Z,19.60
2019-01-09T20:15:59.672Z,12.30
2019-01-09T20:18:28.062Z,14.00
2019-01-09T20:20:56.508Z,19.83
2019-01-09T20:23:24.848Z,11.30
2019-01-09T20:25:53.274Z,6.70
2019-01-09T20:28:21.806Z,8.13
2019-01-09T20:30:50.287Z,8.00
2019-01-09T20:33:18.667Z,7.80
2019-01-09T20:35:47.048Z,5.97
2019-01-09T20:38:15.438Z,5.47
2019-01-09T20:40:43.882Z,6.37
2019-01-09T20:43:12.261Z,5.93
2019-01-09T20:45:40.721Z,6.07
2019-01-09T20:48:09.709Z,6.20
2019-01-09T20:50:38.112Z,5.57
2019-01-09T20:53:06.624Z,4.80
2019-01-09T20:55:35.040Z,4.92
2019-01-09T20:58:03.366Z,5.05
2019-01-09T21:00:31.816Z,5.07
2019-01-09T21:03:01.335Z,10.23
2019-01-09T21:05:35.140Z,6.33
2019-01-09T21:08:03.816Z,4.77
2019-01-09T21:10:32.143Z,4.47
2019-01-09T21:13:00.869Z,3.90
2019-01-09T21:15:29.423Z,4.03
2019-01-09T21:17:57.770Z,4.40
2019-01-09T21:20:26.166Z,4.87
2019-01-09T21:22:54.539Z,5.13
2019-01-09T21:25:22.907Z,4.20
2019-01-09T21:27:51.283Z,4.20
2019-01-09T21:30:22.151Z,3.87
2019-01-09T21:32:50.976Z,3.53
2019-01-09T21:35:19.311Z,3.77
2019-01-09T21:37:47.709Z,3.70
2019-01-09T21:40:18.516Z,3.22
2019-01-09T21:42:46.865Z,3.52
2019-01-09T21:45:15.667Z,3.70
2019-01-09T21:47:43.995Z,3.37
2019-01-09T21:50:17.772Z,3.40
2019-01-09T21:52:46.450Z,3.63
2019-01-09T21:55:15.648Z,5.17
2019-01-09T21:57:44.340Z,5.37
2019-01-09T22:00:18.174Z,4.05
2019-01-09T22:02:46.507Z,4.17
2019-01-09T22:05:15.087Z,3.20
2019-01-09T22:07:43.697Z,4.30
2019-01-09T22:10:15.251Z,3.40
2019-01-09T22:12:43.675Z,3.33
2019-01-09T22:15:14.152Z,3.77
2019-01-09T22:17:42.735Z,3.50
2019-01-09T22:20:13.376Z,3.13
2019-01-09T22:22:41.784Z,3.57
2019-01-09T22:25:11.552Z,3.13
2019-01-09T22:27:40.071Z,3.60
2019-01-09T22:30:17.571Z,3.62
2019-01-09T22:32:46.287Z,3.60
2019-01-09T22:35:14.610Z,3.90
2019-01-09T22:37:43.042Z,3.60
2019-01-09T22:40:15.274Z,3.12
2019-01-09T22:42:43.828Z,3.13
2019-01-09T22:45:12.903Z,3.10
2019-01-09T22:47:41.315Z,3.53
2019-01-09T22:50:12.683Z,3.70
2019-01-09T22:52:41.020Z,4.12
2019-01-09T22:55:10.196Z,4.00
2019-01-09T22:57:38.611Z,4.00
2019-01-09T23:00:34.934Z,4.50
2019-01-09T23:03:06.037Z,4.20
2019-01-09T23:05:34.612Z,3.98
2019-01-09T23:08:03.023Z,4.45
2019-01-09T23:10:31.379Z,4.40
2019-01-09T23:12:59.728Z,4.27
2019-01-09T23:15:28.149Z,4.40
2019-01-09T23:17:56.571Z,5.50
2019-01-09T23:20:24.906Z,3.85
2019-01-09T23:22:53.255Z,4.00
2019-01-09T23:25:21.661Z,3.63
2019-01-09T23:27:50.014Z,3.40
2019-01-09T23:30:18.436Z,4.20
2019-01-09T23:32:46.839Z,4.37
2019-01-09T23:35:15.363Z,3.98
2019-01-09T23:37:44.630Z,3.80
2019-01-09T23:40:15.590Z,3.83
2019-01-09T23:42:44.074Z,3.60
2019-01-09T23:45:13.803Z,3.87
2019-01-09T23:47:42.168Z,4.17
2019-01-09T23:50:11.227Z,3.90
2019-01-09T23:52:39.668Z,3.77
2019-01-09T23:55:10.063Z,4.27
2019-01-09T23:57:38.412Z,3.73
